Time;durP1;ratioP1;P1;durP2;ratioP2;P2;SDS_P1;SDS_P2;PMS_P1;PMS_P2;Temp;Humidity;BMP_temperature;BMP_pressure;BME280_temperature;BME280_humidity;BME280_pressure;Samples;Min_cycle;Max_cycle;Signal;HPM_P1;HPM_P2
2021/09/06 00:01:17;;;;;;;21.67;13.23;;;;;;;16.51;89.20;102276.94;5037206;28;20178;-60
2021/09/06 00:03:44;;;;;;;22.77;14.65;;;;;;;16.45;90.45;102274.88;5031214;28;20803;-61
2021/09/06 00:06:11;;;;;;;20.40;13.45;;;;;;;16.47;89.77;102277.41;5040943;28;20044;-60
2021/09/06 00:08:37;;;;;;;23.23;14.23;;;;;;;16.45;89.65;102277.53;5040576;28;20053;-61
2021/09/06 00:11:08;;;;;;;22.80;14.77;;;;;;;16.44;89.64;102281.16;5012925;28;20139;-61
2021/09/06 00:13:36;;;;;;;21.15;13.20;;;;;;;16.41;89.35;102274.34;5036636;28;20141;-59
2021/09/06 00:16:03;;;;;;;23.65;14.60;;;;;;;16.39;90.76;102284.25;5035173;28;20095;-59
2021/09/06 00:18:30;;;;;;;22.60;14.30;;;;;;;16.36;90.64;102281.91;5042246;28;20128;-58
2021/09/06 00:20:57;;;;;;;23.45;14.07;;;;;;;16.30;89.67;102285.16;5028510;28;20155;-60
2021/09/06 00:23:25;;;;;;;24.13;13.38;;;;;;;16.19;90.05;102283.56;5040068;28;20045;-60
2021/09/06 00:25:52;;;;;;;19.48;12.50;;;;;;;16.13;89.89;102292.09;5033311;28;20083;-61
2021/09/06 00:28:18;;;;;;;19.55;13.35;;;;;;;16.08;88.40;102294.31;5034680;28;20461;-61
2021/09/06 00:30:45;;;;;;;20.45;12.60;;;;;;;16.01;89.29;102286.16;5041050;28;20053;-61
2021/09/06 00:33:12;;;;;;;24.50;13.85;;;;;;;15.96;89.05;102280.44;5035930;28;20064;-59
2021/09/06 00:35:39;;;;;;;22.30;14.40;;;;;;;15.99;89.60;102285.47;5041338;28;20313;-59
2021/09/06 00:38:06;;;;;;;18.83;13.00;;;;;;;15.99;90.87;102282.81;5028618;28;20050;-61
2021/09/06 00:40:33;;;;;;;25.35;14.90;;;;;;;15.97;90.82;102282.09;5034252;28;20836;-61
2021/09/06 00:42:59;;;;;;;25.00;14.75;;;;;;;15.98;90.02;102285.59;5043663;28;20072;-61
2021/09/06 00:45:26;;;;;;;27.02;14.57;;;;;;;15.95;91.25;102281.41;5031540;28;20131;-59
2021/09/06 00:47:52;;;;;;;29.05;15.93;;;;;;;15.95;91.23;102281.41;5041604;28;20164;-60
2021/09/06 00:50:19;;;;;;;22.00;14.60;;;;;;;15.95;91.19;102285.88;5031774;28;20085;-61
2021/09/06 00:52:47;;;;;;;22.48;13.68;;;;;;;15.92;90.16;102284.38;5036600;28;20588;-60
2021/09/06 00:55:16;;;;;;;20.55;12.50;;;;;;;15.91;89.73;102290.63;5030966;28;20095;-59
2021/09/06 00:57:42;;;;;;;;;;;;;;;15.88;88.66;102287.47;5042042;28;20326;-60
2021/09/06 01:00:13;;;;;;;23.13;11.93;;;;;;;15.82;88.82;102286.22;5022071;28;20160;-60
2021/09/06 01:02:41;;;;;;;21.38;13.10;;;;;;;15.77;88.99;102281.34;5033118;28;20461;-61
2021/09/06 01:05:09;;;;;;;22.40;12.25;;;;;;;15.72;88.53;102283.59;5035872;28;20091;-59
2021/09/06 01:07:36;;;;;;;21.42;13.00;;;;;;;15.68;88.99;102292.78;5014512;28;20052;-60
2021/09/06 01:10:05;;;;;;;21.73;12.73;;;;;;;15.65;87.30;102295.72;5037360;28;20059;-61
2021/09/06 01:12:32;;;;;;;22.10;12.52;;;;;;;15.54;88.49;102293.22;5028040;28;20611;-61
2021/09/06 01:14:58;;;;;;;19.08;12.10;;;;;;;15.52;88.59;102287.25;5037362;28;20449;-60
2021/09/06 01:17:25;;;;;;;21.40;13.52;;;;;;;15.49;88.04;102295.50;5040423;28;20503;-59
2021/09/06 01:19:51;;;;;;;20.80;12.77;;;;;;;15.39;88.55;102285.75;5023732;28;20081;-61
2021/09/06 01:22:18;;;;;;;21.70;13.27;;;;;;;15.34;89.21;102285.34;5040079;28;20131;-60
2021/09/06 01:24:46;;;;;;;22.73;12.80;;;;;;;15.37;89.60;102290.34;5019992;28;20084;-58
2021/09/06 01:27:13;;;;;;;19.95;13.10;;;;;;;15.34;89.48;102287.97;5025429;28;20469;-60
2021/09/06 01:29:41;;;;;;;20.58;12.80;;;;;;;15.34;88.69;102292.44;5034906;28;20091;-60
2021/09/06 01:32:09;;;;;;;24.45;13.05;;;;;;;15.32;89.08;102284.66;5035832;28;20136;-59
2021/09/06 01:34:36;;;;;;;21.92;13.43;;;;;;;15.28;89.79;102285.91;5031839;28;20053;-60
2021/09/06 01:37:03;;;;;;;23.23;13.98;;;;;;;15.28;90.01;102283.28;5040906;28;20136;-59
2021/09/06 01:39:29;;;;;;;27.23;14.82;;;;;;;15.30;90.37;102283.13;5038315;28;20087;-60
2021/09/06 01:41:57;;;;;;;22.45;13.82;;;;;;;15.29;91.98;102287.59;5032869;28;20076;-60
2021/09/06 01:44:23;;;;;;;24.53;14.30;;;;;;;15.28;91.20;102280.63;5038323;28;20173;-60
2021/09/06 01:46:50;;;;;;;22.05;13.82;;;;;;;15.28;90.52;102287.72;5022789;28;20087;-60
2021/09/06 01:49:17;;;;;;;23.77;14.30;;;;;;;15.27;90.11;102286.91;5037432;28;20051;-60
2021/09/06 01:51:43;;;;;;;25.20;13.73;;;;;;;15.27;90.08;102291.34;5032251;28;20081;-60
2021/09/06 01:54:10;;;;;;;22.30;13.90;;;;;;;15.25;89.98;102280.94;5040271;28;20128;-60
2021/09/06 01:56:37;;;;;;;22.35;14.35;;;;;;;15.26;89.91;102287.03;5039369;28;20052;-60
2021/09/06 01:59:03;;;;;;;24.73;13.32;;;;;;;15.24;90.22;102287.16;5010721;28;20139;-62
2021/09/06 02:01:30;;;;;;;22.48;13.52;;;;;;;15.19;90.09;102286.75;5031627;28;20170;-61
2021/09/06 02:03:57;;;;;;;19.27;12.32;;;;;;;15.10;90.40;102285.78;5030293;28;20084;-62
2021/09/06 02:06:24;;;;;;;23.33;12.57;;;;;;;15.03;92.01;102295.25;5038992;28;20140;-60
2021/09/06 02:08:50;;;;;;;22.30;13.32;;;;;;;14.96;90.86;102289.69;5034066;28;20536;-62
2021/09/06 02:11:17;;;;;;;20.58;13.15;;;;;;;14.89;91.53;102293.88;5040368;28;20083;-62
2021/09/06 02:13:43;;;;;;;20.63;12.70;;;;;;;14.86;91.76;102298.59;5035320;28;20041;-62
2021/09/06 02:16:10;;;;;;;25.17;13.90;;;;;;;14.81;92.64;102288.44;5029438;28;20083;-62
2021/09/06 02:18:36;;;;;;;27.15;14.00;;;;;;;14.83;93.38;102284.69;5043252;28;20049;-61
2021/09/06 02:21:03;;;;;;;25.00;15.45;;;;;;;14.89;94.44;102291.22;5034149;28;20542;-60
2021/09/06 02:23:29;;;;;;;27.42;15.57;;;;;;;14.89;95.39;102290.41;5044499;28;20481;-61
2021/09/06 02:25:56;;;;;;;26.05;15.88;;;;;;;14.89;94.20;102285.94;5035535;28;20118;-61
2021/09/06 02:28:22;;;;;;;24.52;15.65;;;;;;;14.91;93.20;102291.09;5033423;28;20132;-60
2021/09/06 02:30:49;;;;;;;28.02;16.25;;;;;;;14.91;92.34;102293.72;5040826;28;20156;-61
2021/09/06 02:33:15;;;;;;;25.23;14.93;;;;;;;14.89;91.95;102290.41;5036076;28;20523;-60
2021/09/06 02:35:42;;;;;;;26.90;15.52;;;;;;;14.90;90.99;102287.63;5041514;28;20643;-62
2021/09/06 02:38:08;;;;;;;28.00;16.02;;;;;;;14.90;93.48;102287.63;5039567;28;20122;-61
2021/09/06 02:40:34;;;;;;;26.33;15.48;;;;;;;14.87;91.65;102294.97;5039353;28;20140;-61
2021/09/06 02:43:01;;;;;;;21.60;13.73;;;;;;;14.79;93.33;102287.75;5031787;28;20102;-61
2021/09/06 02:45:28;;;;;;;25.88;15.10;;;;;;;14.69;93.27;102292.19;5042079;28;20088;-61
2021/09/06 02:47:54;;;;;;;21.77;14.02;;;;;;;14.65;92.04;102291.63;5044326;28;20127;-60
2021/09/06 02:50:21;;;;;;;27.08;16.10;;;;;;;14.57;94.10;102288.84;5036043;28;20148;-61
2021/09/06 02:52:47;;;;;;;24.17;15.23;;;;;;;14.58;94.00;102286.06;5044922;28;20135;-61
2021/09/06 02:55:14;;;;;;;29.40;14.88;;;;;;;14.58;94.93;102294.00;5030049;28;20167;-61
2021/09/06 02:57:40;;;;;;;22.70;13.80;;;;;;;14.60;92.35;102302.63;5038388;28;20081;-60
2021/09/06 03:00:07;;;;;;;26.92;14.65;;;;;;;14.52;93.85;102297.13;5031891;28;20063;-61
2021/09/06 03:02:33;;;;;;;25.55;15.68;;;;;;;14.47;94.35;102291.44;5041881;28;20047;-57
2021/09/06 03:05:00;;;;;;;26.02;14.80;;;;;;;14.47;94.61;102287.97;5041192;28;20041;-61
2021/09/06 03:07:27;;;;;;;23.70;13.85;;;;;;;14.42;93.92;102283.06;5035506;28;20059;-61
2021/09/06 03:09:54;;;;;;;24.33;13.95;;;;;;;14.37;94.61;102290.59;5036007;28;20168;-61
2021/09/06 03:12:20;;;;;;;26.70;14.02;;;;;;;14.35;93.02;102285.44;5029407;28;20135;-59
2021/09/06 03:14:47;;;;;;;24.02;14.27;;;;;;;14.36;93.41;102286.25;5045390;28;20120;-60
2021/09/06 03:17:13;;;;;;;25.23;14.23;;;;;;;14.28;93.91;102284.31;5038172;28;20489;-59
2021/09/06 03:19:40;;;;;;;24.88;14.35;;;;;;;14.30;94.63;102281.53;5043418;28;20475;-59
2021/09/06 03:22:07;;;;;;;27.90;14.98;;;;;;;14.33;95.01;102284.75;5042790;28;20080;-59
2021/09/06 03:24:34;;;;;;;23.38;14.85;;;;;;;14.30;93.56;102285.00;5030254;28;20143;-61
2021/09/06 03:27:01;;;;;;;22.90;14.50;;;;;;;14.29;94.12;102282.50;5041092;28;20135;-60
2021/09/06 03:29:27;;;;;;;24.23;15.20;;;;;;;14.31;94.72;102281.41;5039085;28;20095;-60
2021/09/06 03:31:53;;;;;;;25.92;15.00;;;;;;;14.28;93.36;102279.03;5042604;28;20128;-61
2021/09/06 03:34:20;;;;;;;23.85;14.73;;;;;;;14.26;91.89;102278.31;5039753;28;20489;-61
2021/09/06 03:36:47;;;;;;;24.15;15.30;;;;;;;14.22;93.06;102280.38;5038497;28;20048;-61
2021/09/06 03:39:13;;;;;;;24.33;15.18;;;;;;;14.13;93.48;102278.59;5041513;28;20148;-61
2021/09/06 03:41:39;;;;;;;24.73;14.65;;;;;;;14.13;92.62;102278.59;5035339;28;20103;-59
2021/09/06 03:44:06;;;;;;;25.45;14.63;;;;;;;14.11;91.83;102277.03;5030342;28;20112;-57
2021/09/06 03:46:32;;;;;;;22.58;14.02;;;;;;;14.09;92.78;102284.25;5035554;28;20502;-60
2021/09/06 03:48:59;;;;;;;20.80;13.95;;;;;;;14.03;92.08;102275.06;5046857;28;20775;-60
2021/09/06 03:51:25;;;;;;;23.08;14.18;;;;;;;14.00;92.48;102284.06;5032887;28;20469;-60
2021/09/06 03:53:52;;;;;;;23.55;13.50;;;;;;;13.97;92.06;102270.31;5042061;28;20053;-61
2021/09/06 03:56:18;;;;;;;26.10;14.75;;;;;;;13.94;92.08;102286.44;5044428;28;20135;-61
2021/09/06 03:58:45;;;;;;;25.30;14.93;;;;;;;13.84;93.37;102279.28;5039055;28;20989;-61
2021/09/06 04:01:11;;;;;;;25.17;14.98;;;;;;;13.83;93.60;102276.78;5044350;28;20569;-60
2021/09/06 04:03:38;;;;;;;24.30;14.75;;;;;;;13.82;91.78;102283.88;5042936;28;20079;-60
2021/09/06 04:06:05;;;;;;;26.05;15.60;;;;;;;13.75;94.64;102281.88;5041448;28;20130;-60
2021/09/06 04:08:31;;;;;;;27.05;15.88;;;;;;;13.72;96.89;102275.09;5037326;28;20053;-61
2021/09/06 04:10:58;;;;;;;27.42;15.18;;;;;;;13.74;94.11;102278.41;5046142;28;20666;-60
2021/09/06 04:13:24;;;;;;;31.30;17.15;;;;;;;13.72;94.33;102280.34;5048564;28;20059;-61
2021/09/06 04:15:51;;;;;;;25.65;15.63;;;;;;;13.72;94.32;102282.13;5039194;28;20041;-61
2021/09/06 04:18:17;;;;;;;22.83;14.35;;;;;;;13.67;94.38;102277.25;5045508;28;20131;-61
2021/09/06 04:20:44;;;;;;;26.45;14.45;;;;;;;13.67;93.99;102287.00;5034030;28;20136;-61
2021/09/06 04:23:11;;;;;;;27.30;15.60;;;;;;;13.63;95.03;102287.22;5048548;28;20226;-60
2021/09/06 04:25:38;;;;;;;23.02;14.50;;;;;;;13.64;95.15;102288.91;5042315;28;20128;-60
2021/09/06 04:28:04;;;;;;;25.85;15.13;;;;;;;13.63;94.11;102294.31;5047117;28;20135;-61
2021/09/06 04:30:31;;;;;;;26.70;16.35;;;;;;;13.64;94.31;102303.88;5043479;28;20132;-60
2021/09/06 04:32:57;;;;;;;26.08;15.82;;;;;;;13.56;94.63;102298.44;5037212;28;20135;-61
2021/09/06 04:35:24;;;;;;;29.33;16.08;;;;;;;13.60;95.38;102299.84;5040149;28;20530;-61
2021/09/06 04:37:50;;;;;;;25.13;14.73;;;;;;;13.62;95.71;102305.81;5037740;28;20132;-60
2021/09/06 04:40:17;;;;;;;28.65;16.65;;;;;;;13.60;96.74;102303.34;5045131;28;20134;-61
2021/09/06 04:42:43;;;;;;;25.92;14.90;;;;;;;13.63;94.12;102302.22;5039673;28;20160;-60
2021/09/06 04:45:10;;;;;;;25.48;14.65;;;;;;;13.60;94.03;102305.13;5045887;28;20140;-61
2021/09/06 04:47:36;;;;;;;25.75;14.90;;;;;;;13.64;93.21;102309.16;5042534;28;21493;-61
2021/09/06 04:50:03;;;;;;;26.77;16.17;;;;;;;13.61;95.03;102312.06;5033442;28;20053;-60
2021/09/06 04:52:29;;;;;;;26.45;14.80;;;;;;;13.61;93.74;102318.16;5047437;28;20132;-60
2021/09/06 04:54:56;;;;;;;19.55;13.52;;;;;;;13.58;93.20;102326.34;5042680;28;20515;-61
2021/09/06 04:57:22;;;;;;;22.67;13.25;;;;;;;13.52;93.03;102326.03;5046279;28;20130;-61
2021/09/06 04:59:49;;;;;;;22.75;13.43;;;;;;;13.48;92.38;102330.72;5041524;28;20087;-61
2021/09/06 05:02:15;;;;;;;33.53;20.27;;;;;;;13.40;93.14;102336.63;5037200;28;20136;-61
2021/09/06 05:04:43;;;;;;;32.25;19.10;;;;;;;13.40;94.06;102333.16;5048598;28;20420;-61
2021/09/06 05:07:09;;;;;;;29.77;18.27;;;;;;;13.36;93.94;102335.19;5023369;28;20144;-62
2021/09/06 05:09:36;;;;;;;28.80;17.50;;;;;;;13.36;94.41;102332.56;5048761;28;20076;-61
2021/09/06 05:12:03;;;;;;;25.42;15.20;;;;;;;13.35;94.76;102336.19;5036434;28;20143;-61
2021/09/06 05:14:30;;;;;;;23.45;13.85;;;;;;;13.34;94.31;102333.66;5043089;28;20074;-61
2021/09/06 05:16:56;;;;;;;25.80;14.65;;;;;;;13.32;94.40;102339.06;5036489;28;20099;-59
2021/09/06 05:19:22;;;;;;;27.95;14.93;;;;;;;13.30;95.57;102334.88;5047247;28;20524;-60
2021/09/06 05:21:49;;;;;;;23.92;13.98;;;;;;;13.31;96.15;102331.28;5046539;28;20153;-60
2021/09/06 05:24:15;;;;;;;25.27;14.20;;;;;;;13.32;95.50;102341.69;5039755;28;20500;-60
2021/09/06 05:26:42;;;;;;;21.38;13.85;;;;;;;13.33;94.67;102343.38;5042854;28;20044;-61
2021/09/06 05:29:08;;;;;;;25.65;13.15;;;;;;;13.32;95.23;102349.59;5019140;28;20361;-60
2021/09/06 05:31:35;;;;;;;20.98;13.25;;;;;;;13.34;95.58;102347.69;5039187;28;20140;-60
2021/09/06 05:34:01;;;;;;;24.15;14.13;;;;;;;13.34;96.91;102355.59;5040100;28;20088;-60
2021/09/06 05:36:28;;;;;;;24.45;13.68;;;;;;;13.29;98.17;102347.22;5046443;28;20072;-60
2021/09/06 05:38:54;;;;;;;26.15;14.38;;;;;;;13.29;99.76;102352.47;5045130;28;20080;-60
2021/09/06 05:41:21;;;;;;;25.60;14.90;;;;;;;13.37;100.00;102350.06;5036596;28;20053;-60
2021/09/06 05:43:48;;;;;;;28.42;16.55;;;;;;;13.41;100.00;102355.94;5039965;28;20560;-60
2021/09/06 05:46:15;;;;;;;35.60;16.90;;;;;;;13.46;100.00;102351.09;5033034;28;20139;-59
2021/09/06 05:48:42;;;;;;;33.10;16.85;;;;;;;13.49;100.00;102348.22;5043952;28;20507;-60
2021/09/06 05:51:08;;;;;;;28.45;16.70;;;;;;;13.57;100.00;102343.13;5035512;28;20114;-59
2021/09/06 05:53:35;;;;;;;32.35;18.75;;;;;;;13.64;100.00;102353.97;5044226;28;20135;-60
2021/09/06 05:56:01;;;;;;;36.15;19.35;;;;;;;13.66;100.00;102349.41;5044202;28;20459;-60
2021/09/06 05:58:28;;;;;;;35.95;19.08;;;;;;;13.72;100.00;102354.19;5033317;28;20620;-60
2021/09/06 06:00:54;;;;;;;36.25;19.67;;;;;;;13.78;100.00;102355.44;5042852;28;20708;-60
2021/09/06 06:03:21;;;;;;;32.60;18.95;;;;;;;13.80;100.00;102364.94;5038448;28;20179;-60
2021/09/06 06:05:48;;;;;;;33.45;19.40;;;;;;;13.87;100.00;102361.75;5044634;28;20056;-59
2021/09/06 06:08:14;;;;;;;40.03;22.08;;;;;;;13.88;100.00;102373.97;5036727;28;20140;-59
2021/09/06 06:10:41;;;;;;;38.38;21.67;;;;;;;13.92;100.00;102378.88;5040289;28;20084;-60
2021/09/06 06:13:07;;;;;;;39.25;20.23;;;;;;;13.95;100.00;102383.03;5040312;28;20148;-60
2021/09/06 06:15:34;;;;;;;34.83;20.90;;;;;;;13.97;100.00;102389.84;5036052;28;20215;-59
2021/09/06 06:18:00;;;;;;;33.03;19.00;;;;;;;14.02;100.00;102392.94;5045463;28;20080;-60
2021/09/06 06:20:27;;;;;;;42.42;21.02;;;;;;;14.07;100.00;102394.34;5037133;28;20132;-58
2021/09/06 06:22:53;;;;;;;36.63;21.42;;;;;;;14.14;100.00;102390.22;5042657;28;20128;-57
2021/09/06 06:25:20;;;;;;;41.42;22.13;;;;;;;14.19;100.00;102386.25;5032097;28;20087;-56
2021/09/06 06:27:46;;;;;;;44.83;22.67;;;;;;;14.25;100.00;102392.78;5022837;28;20130;-57
2021/09/06 06:30:13;;;;;;;47.92;22.88;;;;;;;14.32;100.00;102388.63;5041701;28;20144;-60
2021/09/06 06:32:39;;;;;;;40.95;23.58;;;;;;;14.38;100.00;102389.91;5016025;28;20127;-60
2021/09/06 06:35:06;;;;;;;37.38;20.80;;;;;;;14.45;100.00;102393.69;5046344;28;20563;-60
2021/09/06 06:37:33;;;;;;;42.57;22.20;;;;;;;14.51;100.00;102393.16;5032790;28;20057;-60
2021/09/06 06:40:00;;;;;;;38.83;22.38;;;;;;;14.60;100.00;102399.47;5038840;28;20103;-59
2021/09/06 06:42:26;;;;;;;37.08;22.63;;;;;;;14.65;100.00;102393.81;5034343;28;20088;-58
2021/09/06 06:44:53;;;;;;;40.22;22.85;;;;;;;14.77;100.00;102398.00;5044707;28;20164;-60
2021/09/06 06:47:19;;;;;;;40.15;23.98;;;;;;;14.95;100.00;102399.00;5041780;28;20136;-60
2021/09/06 06:49:46;;;;;;;40.25;22.75;;;;;;;15.01;100.00;102403.75;5035706;28;20485;-58
2021/09/06 06:52:13;;;;;;;41.25;22.67;;;;;;;15.01;100.00;102394.97;5035790;28;20069;-60
2021/09/06 06:54:39;;;;;;;44.97;21.80;;;;;;;15.11;100.00;102400.25;5034240;28;20049;-60
2021/09/06 06:57:06;;;;;;;45.80;23.27;;;;;;;15.29;100.00;102395.97;5042641;28;20075;-61
2021/09/06 06:59:33;;;;;;;44.42;23.55;;;;;;;15.40;100.00;102395.00;5038249;28;20143;-61
2021/09/06 07:02:00;;;;;;;53.00;24.98;;;;;;;15.54;100.00;102397.22;5044180;28;20139;-60
2021/09/06 07:04:27;;;;;;;41.47;23.77;;;;;;;15.33;100.00;102401.84;5042506;28;20084;-59
2021/09/06 07:06:54;;;;;;;42.42;23.88;;;;;;;15.32;100.00;102395.69;5035148;28;20060;-59
2021/09/06 07:09:20;;;;;;;38.88;22.20;;;;;;;15.65;100.00;102390.94;5041205;28;20053;-60
2021/09/06 07:11:47;;;;;;;46.60;26.42;;;;;;;15.79;100.00;102401.09;5035780;28;20143;-61
2021/09/06 07:14:13;;;;;;;46.67;25.60;;;;;;;15.74;100.00;102407.78;5045405;28;20140;-59
2021/09/06 07:16:40;;;;;;;43.30;24.40;;;;;;;15.78;100.00;102411.84;5037031;28;20523;-61
2021/09/06 07:19:06;;;;;;;42.92;25.05;;;;;;;15.73;100.00;102406.97;5027307;28;20053;-60
2021/09/06 07:21:33;;;;;;;48.58;25.17;;;;;;;15.72;100.00;102412.34;5029330;28;20100;-59
2021/09/06 07:23:59;;;;;;;44.90;25.95;;;;;;;15.83;100.00;102425.47;5042243;28;20496;-60
2021/09/06 07:26:26;;;;;;;45.67;25.40;;;;;;;15.99;100.00;102424.88;5044571;28;20128;-61
2021/09/06 07:28:53;;;;;;;47.63;27.05;;;;;;;16.24;100.00;102427.88;5039366;28;20780;-60
2021/09/06 07:31:19;;;;;;;55.08;27.65;;;;;;;16.42;100.00;102428.78;5043807;28;20500;-61
2021/09/06 07:33:46;;;;;;;51.33;27.83;;;;;;;16.37;100.00;102431.06;5034863;28;20483;-61
2021/09/06 07:36:12;;;;;;;51.55;27.90;;;;;;;16.31;100.00;102434.28;5037205;28;20072;-60
2021/09/06 07:38:39;;;;;;;48.75;26.00;;;;;;;16.54;100.00;102443.53;5038127;28;20131;-61
2021/09/06 07:41:05;;;;;;;38.42;22.13;;;;;;;16.77;100.00;102443.94;5043922;28;20080;-61
2021/09/06 07:43:32;;;;;;;39.75;22.38;;;;;;;16.95;99.75;102438.72;5045117;28;20135;-61
2021/09/06 07:45:59;;;;;;;35.80;20.80;;;;;;;16.91;100.00;102445.28;5038659;28;20053;-61
2021/09/06 07:48:25;;;;;;;45.08;25.00;;;;;;;16.87;100.00;102445.75;5040600;28;20049;-60
2021/09/06 07:50:52;;;;;;;44.92;25.85;;;;;;;17.05;100.00;102448.44;5033011;28;20651;-61
2021/09/06 07:53:19;;;;;;;47.25;27.52;;;;;;;16.95;100.00;102453.78;5042276;28;20468;-61
2021/09/06 07:55:45;;;;;;;44.35;25.15;;;;;;;16.88;100.00;102447.44;5019309;28;20049;-61
2021/09/06 07:58:12;;;;;;;45.25;26.38;;;;;;;17.06;100.00;102448.28;5042506;28;20464;-61
2021/09/06 08:00:38;;;;;;;45.83;25.45;;;;;;;17.16;100.00;102442.91;5044769;28;20062;-61
2021/09/06 08:03:05;;;;;;;38.13;23.38;;;;;;;17.48;99.17;102452.16;5032172;28;20364;-61
2021/09/06 08:05:32;;;;;;;42.08;24.00;;;;;;;17.42;99.02;102453.59;5040269;28;20554;-61
2021/09/06 08:07:59;;;;;;;46.47;23.90;;;;;;;17.33;99.59;102454.53;5033173;28;20146;-60
2021/09/06 08:10:25;;;;;;;42.50;25.42;;;;;;;17.27;100.00;102450.66;5041658;28;20142;-61
2021/09/06 08:12:52;;;;;;;41.05;25.35;;;;;;;17.59;100.00;102451.94;5038081;28;20544;-60
2021/09/06 08:15:19;;;;;;;43.25;26.45;;;;;;;17.66;99.50;102449.50;5044125;28;20143;-61
2021/09/06 08:17:45;;;;;;;40.10;25.52;;;;;;;17.79;98.61;102455.25;5037191;28;20574;-61
2021/09/06 08:20:15;;;;;;;44.95;25.60;;;;;;;18.02;97.32;102458.25;5038184;28;20499;-60
2021/09/06 08:22:42;;;;;;;46.33;25.77;;;;;;;18.63;94.59;102456.44;5045635;28;20052;-61
2021/09/06 08:25:10;;;;;;;43.40;26.38;;;;;;;18.78;92.39;102457.50;5043294;28;20157;-61
2021/09/06 08:27:37;;;;;;;49.17;26.10;;;;;;;18.72;91.58;102452.81;5048084;28;20143;-61
2021/09/06 08:30:06;;;;;;;43.20;25.90;;;;;;;18.61;92.73;102454.94;5037868;28;20141;-61
2021/09/06 08:32:33;;;;;;;43.65;24.65;;;;;;;18.69;92.19;102454.97;5040607;28;20045;-61
2021/09/06 08:35:00;;;;;;;43.50;24.55;;;;;;;18.94;91.34;102461.22;5047688;28;20548;-61
2021/09/06 08:37:27;;;;;;;42.65;25.65;;;;;;;19.00;91.37;102468.56;5039154;28;20052;-61
2021/09/06 08:39:53;;;;;;;30.13;19.83;;;;;;;19.13;88.18;102462.75;5048329;28;20183;-61
2021/09/06 08:42:20;;;;;;;42.85;24.63;;;;;;;19.26;88.99;102471.09;5034723;28;20481;-61
2021/09/06 08:44:47;;;;;;;42.25;25.90;;;;;;;19.47;87.39;102469.81;5044474;28;20103;-61
2021/09/06 08:47:14;;;;;;;40.33;24.92;;;;;;;19.60;86.35;102466.63;5040452;28;20164;-61
2021/09/06 08:49:42;;;;;;;39.90;24.15;;;;;;;19.68;85.98;102472.81;5047969;28;20076;-61
2021/09/06 08:52:08;;;;;;;37.03;22.83;;;;;;;19.75;86.66;102462.34;5045823;28;20144;-61
2021/09/06 08:54:35;;;;;;;39.78;24.92;;;;;;;19.93;85.23;102470.16;5041238;28;20499;-61
2021/09/06 08:57:02;;;;;;;43.40;24.17;;;;;;;20.11;85.03;102472.59;5038597;28;20049;-62
2021/09/06 08:59:28;;;;;;;39.50;22.77;;;;;;;20.45;83.13;102471.53;5038371;28;20085;-61
2021/09/06 09:01:55;;;;;;;42.17;23.98;;;;;;;20.53;82.39;102474.19;5044459;28;20132;-61
2021/09/06 09:04:27;;;;;;;40.90;22.70;;;;;;;20.58;80.86;102484.31;5036434;28;20424;-61
2021/09/06 09:06:59;;;;;;;42.90;23.83;;;;;;;20.68;80.31;102471.63;5043994;28;20076;-61
2021/09/06 09:09:35;;;;;;;41.45;24.33;;;;;;;20.93;80.08;102475.00;5038388;28;20081;-61
2021/09/06 09:12:13;;;;;;;39.85;22.70;;;;;;;21.36;77.95;102474.59;5039513;28;20080;-61
2021/09/06 09:14:52;;;;;;;37.63;22.50;;;;;;;21.39;77.90;102463.56;5047394;28;20064;-61
2021/09/06 09:17:18;;;;;;;41.05;22.63;;;;;;;21.26;77.78;102466.81;5040149;28;20147;-61
2021/09/06 09:19:45;;;;;;;35.58;20.10;;;;;;;21.28;75.54;102467.47;5047049;28;20485;-62
2021/09/06 09:22:16;;;;;;;36.90;20.40;;;;;;;21.52;74.64;102477.16;5039718;28;20095;-61
2021/09/06 09:24:43;;;;;;;35.80;21.02;;;;;;;21.59;75.13;102475.44;5043519;28;20077;-61
2021/09/06 09:27:16;;;;;;;36.75;22.65;;;;;;;21.71;74.38;102470.50;5034402;28;20143;-61
2021/09/06 09:29:44;;;;;;;37.60;22.33;;;;;;;21.79;74.52;102472.28;5046800;28;20488;-61
2021/09/06 09:32:12;;;;;;;37.87;21.17;;;;;;;22.00;71.60;102474.25;5039744;28;20052;-62
2021/09/06 09:34:41;;;;;;;46.28;24.02;;;;;;;22.20;72.44;102470.03;5046134;28;20056;-61
2021/09/06 09:37:09;;;;;;;42.92;23.52;;;;;;;22.15;72.47;102468.91;5044374;28;20698;-62
2021/09/06 09:39:37;;;;;;;37.92;22.58;;;;;;;22.20;71.56;102471.88;5035091;28;20048;-62
2021/09/06 09:42:09;;;;;;;33.83;19.63;;;;;;;22.36;68.85;102479.72;5043873;28;20135;-60
2021/09/06 09:44:50;;;;;;;38.55;20.60;;;;;;;22.38;68.71;102484.91;5041629;28;20083;-61
2021/09/06 09:47:23;;;;;;;33.63;20.77;;;;;;;22.58;68.47;102479.81;5044828;28;20072;-61
2021/09/06 09:49:51;;;;;;;32.88;20.45;;;;;;;22.93;67.38;102480.03;5039955;28;20478;-61
2021/09/06 09:52:19;;;;;;;32.28;19.58;;;;;;;22.72;65.17;102481.66;5041156;28;20075;-62
2021/09/06 09:54:52;;;;;;;;;;;;;;;22.75;66.81;102475.91;5043306;28;20748;-62
2021/09/06 09:57:21;;;;;;;30.65;19.42;;;;;;;22.80;65.38;102481.53;5043150;28;19975;-62
2021/09/06 09:59:47;;;;;;;;;;;;;;;23.02;66.03;102482.44;5047573;28;20421;-62
2021/09/06 10:02:17;;;;;;;32.70;19.63;;;;;;;23.17;65.78;102470.84;5037988;28;20011;-62
2021/09/06 10:04:51;;;;;;;31.60;18.77;;;;;;;23.34;65.17;102477.59;5028190;28;20102;-62
2021/09/06 10:07:19;;;;;;;35.10;18.83;;;;;;;23.46;64.70;102475.25;5032751;28;20061;-62
2021/09/06 10:09:47;;;;;;;26.92;15.88;;;;;;;23.59;63.84;102469.19;5045534;28;20072;-62
2021/09/06 10:12:19;;;;;;;28.63;16.00;;;;;;;24.00;63.30;102461.28;5038424;28;20138;-62
2021/09/06 10:14:55;;;;;;;33.75;18.02;;;;;;;24.11;62.41;102459.94;5045887;28;20060;-62
2021/09/06 10:17:47;;;;;;;30.63;17.70;;;;;;;24.34;62.48;102456.13;5045491;28;20091;-62
2021/09/06 10:20:14;;;;;;;28.67;16.30;;;;;;;24.62;62.98;102451.53;5040408;28;20145;-62
2021/09/06 10:22:43;;;;;;;30.58;17.33;;;;;;;24.93;62.14;102465.44;5040788;28;20668;-63
2021/09/06 10:25:19;;;;;;;30.65;18.42;;;;;;;25.06;61.62;102457.44;5039070;28;20099;-62
2021/09/06 10:27:58;;;;;;;34.17;18.85;;;;;;;24.92;58.15;102461.13;5041787;28;20068;-62
2021/09/06 10:30:48;;;;;;;30.83;18.38;;;;;;;24.93;57.58;102460.09;5019532;28;20060;-62
2021/09/06 10:33:28;;;;;;;30.35;17.15;;;;;;;25.18;59.08;102463.84;5039233;28;20667;-62
2021/09/06 10:36:08;;;;;;;32.22;19.02;;;;;;;25.28;57.38;102457.28;5030938;28;20501;-65
2021/09/06 10:38:45;;;;;;;34.38;20.13;;;;;;;25.32;56.88;102453.16;5042585;28;20577;-63
2021/09/06 10:41:21;;;;;;;34.45;19.60;;;;;;;25.35;57.98;102452.75;5038398;28;20139;-62
2021/09/06 10:43:50;;;;;;;30.67;18.75;;;;;;;25.40;56.94;102452.94;5044832;28;20420;-62
2021/09/06 10:46:21;;;;;;;35.13;18.33;;;;;;;25.58;56.67;102449.63;5038997;28;20570;-62
2021/09/06 10:48:49;;;;;;;31.30;18.92;;;;;;;25.70;55.25;102457.91;5040606;28;20082;-63
2021/09/06 10:51:23;;;;;;;;;;;;;;;25.79;55.12;102454.78;5041279;28;20063;-63
2021/09/06 10:53:54;;;;;;;29.80;19.05;;;;;;;25.93;54.83;102452.94;5035587;28;20420;-62
2021/09/06 10:56:24;;;;;;;30.35;17.85;;;;;;;25.88;52.91;102460.78;5045289;28;21674;-62
2021/09/06 10:58:51;;;;;;;27.58;17.55;;;;;;;25.61;51.28;102460.00;5039017;28;20080;-62
2021/09/06 11:01:18;;;;;;;30.17;16.75;;;;;;;25.75;52.44;102448.19;5041637;28;20152;-62
2021/09/06 11:03:46;;;;;;;26.95;15.02;;;;;;;25.84;52.47;102455.00;5033011;28;20091;-62
2021/09/06 11:06:13;;;;;;;31.05;16.45;;;;;;;25.95;51.66;102456.28;5044987;28;20111;-62
2021/09/06 11:08:39;;;;;;;29.77;16.85;;;;;;;25.87;51.30;102453.75;5038469;28;20083;-62
2021/09/06 11:11:08;;;;;;;23.20;14.73;;;;;;;25.98;52.98;102447.78;5045381;28;20497;-62